createdAt,value
2018-05-25T00:00:18.805Z,15.20
2018-05-25T00:02:45.981Z,15.10
2018-05-25T00:05:12.425Z,15.10
2018-05-25T00:07:38.895Z,15.10
2018-05-25T00:10:05.316Z,15.10
2018-05-25T00:12:32.777Z,15.10
2018-05-25T00:15:00.001Z,14.80
2018-05-25T00:17:26.507Z,14.80
2018-05-25T00:20:03.383Z,14.70
2018-05-25T00:22:30.621Z,14.70
2018-05-25T00:24:57.072Z,14.70
2018-05-25T00:27:24.233Z,14.70
2018-05-25T00:29:50.670Z,14.70
2018-05-25T00:32:17.873Z,14.60
2018-05-25T00:34:44.358Z,14.60
2018-05-25T00:37:11.506Z,14.40
2018-05-25T00:39:37.987Z,14.40
2018-05-25T00:42:04.408Z,14.30
2018-05-25T00:44:30.893Z,14.30
2018-05-25T00:46:57.318Z,14.30
2018-05-25T00:49:23.789Z,14.30
2018-05-25T00:51:50.968Z,14.30
2018-05-25T00:54:17.405Z,14.30
2018-05-25T00:56:43.830Z,14.30
2018-05-25T00:59:10.295Z,14.30
2018-05-25T01:01:36.694Z,14.40
2018-05-25T01:04:03.159Z,14.30
2018-05-25T01:06:29.617Z,14.20
2018-05-25T01:08:56.090Z,14.20
2018-05-25T01:11:22.604Z,14.10
2018-05-25T01:13:49.054Z,14.30
2018-05-25T01:16:16.520Z,14.20
2018-05-25T01:18:43.045Z,14.10
2018-05-25T01:21:09.546Z,14.10
2018-05-25T01:23:45.331Z,14.10
2018-05-25T01:26:11.797Z,14.10
2018-05-25T01:28:39.068Z,14.00
2018-05-25T01:31:05.585Z,14.00
2018-05-25T01:33:32.854Z,13.80
2018-05-25T01:35:59.372Z,13.70
2018-05-25T01:38:26.599Z,13.80
2018-05-25T01:40:53.823Z,13.80
2018-05-25T01:43:21.302Z,13.80
2018-05-25T01:45:48.534Z,13.60
2018-05-25T01:48:14.996Z,13.60
2018-05-25T01:50:41.460Z,13.60
2018-05-25T01:53:08.686Z,13.50
2018-05-25T01:55:36.180Z,13.50
2018-05-25T01:58:29.688Z,13.60
2018-05-25T02:00:56.233Z,13.50
2018-05-25T02:03:22.797Z,13.40
2018-05-25T02:05:50.101Z,13.30
2018-05-25T02:08:16.630Z,13.30
2018-05-25T02:10:43.154Z,13.40
2018-05-25T02:13:09.676Z,13.30
2018-05-25T02:15:36.223Z,13.30
2018-05-25T02:18:02.746Z,13.30
2018-05-25T02:20:29.288Z,13.20
2018-05-25T02:22:55.853Z,13.00
2018-05-25T02:25:22.393Z,12.90
2018-05-25T02:27:48.930Z,13.10
2018-05-25T02:30:15.523Z,13.20
2018-05-25T02:32:42.046Z,13.20
2018-05-25T02:35:08.623Z,13.10
2018-05-25T02:37:35.146Z,13.10
2018-05-25T02:40:01.684Z,13.20
2018-05-25T02:42:29.085Z,13.10
2018-05-25T02:44:55.604Z,13.10
2018-05-25T02:47:22.124Z,13.10
2018-05-25T02:49:48.700Z,13.10
2018-05-25T02:52:15.250Z,13.10
2018-05-25T02:54:41.812Z,13.20
2018-05-25T02:57:08.364Z,13.30
2018-05-25T02:59:42.601Z,13.20
2018-05-25T03:02:09.148Z,13.00
2018-05-25T03:04:35.612Z,13.00
2018-05-25T03:07:02.838Z,12.90
2018-05-25T03:09:42.826Z,13.00
2018-05-25T03:12:09.355Z,13.00
2018-05-25T03:14:35.879Z,12.90
2018-05-25T03:17:02.489Z,12.70
2018-05-25T03:19:30.337Z,12.60
2018-05-25T03:21:56.896Z,12.60
2018-05-25T03:24:24.146Z,12.50
2018-05-25T03:26:50.676Z,12.50
2018-05-25T03:29:17.938Z,12.30
2018-05-25T03:31:44.478Z,12.30
2018-05-25T03:34:11.004Z,12.30
2018-05-25T03:36:38.270Z,12.30
2018-05-25T03:39:05.567Z,12.40
2018-05-25T03:41:32.059Z,12.30
2018-05-25T03:43:58.634Z,12.40
2018-05-25T03:46:25.170Z,12.60
2018-05-25T03:48:51.745Z,12.40
2018-05-25T03:51:18.302Z,12.20
2018-05-25T03:53:44.854Z,12.00
2018-05-25T03:56:11.391Z,12.00
2018-05-25T03:58:50.049Z,12.10
2018-05-25T04:01:29.371Z,12.30
2018-05-25T04:03:55.961Z,12.30
2018-05-25T04:06:22.476Z,12.30
2018-05-25T04:08:49.051Z,12.20
2018-05-25T04:11:15.650Z,12.20
2018-05-25T04:13:42.103Z,12.30
2018-05-25T04:16:08.578Z,12.30
2018-05-25T04:18:35.781Z,12.20
2018-05-25T04:21:02.229Z,12.20
2018-05-25T04:23:28.683Z,12.40
2018-05-25T04:25:55.836Z,12.70
2018-05-25T04:28:23.040Z,12.80
2018-05-25T04:30:49.456Z,12.80
2018-05-25T04:33:15.913Z,12.90
2018-05-25T04:35:42.351Z,13.20
2018-05-25T04:38:08.777Z,13.30
2018-05-25T04:40:35.203Z,13.50
2018-05-25T04:43:01.747Z,13.50
2018-05-25T04:45:28.215Z,13.70
2018-05-25T04:47:54.645Z,13.80
2018-05-25T04:50:21.859Z,14.10
2018-05-25T04:52:48.292Z,14.10
2018-05-25T04:55:15.534Z,14.30
2018-05-25T04:57:42.009Z,14.30
2018-05-25T05:00:09.221Z,14.40
2018-05-25T05:02:35.622Z,14.40
2018-05-25T05:05:02.916Z,14.60
2018-05-25T05:09:55.559Z,14.50
2018-05-25T05:12:22.759Z,14.60
2018-05-25T05:14:49.255Z,14.60
2018-05-25T05:17:15.748Z,14.70
2018-05-25T05:19:44.272Z,14.70
2018-05-25T05:22:15.096Z,14.70
2018-05-25T05:24:41.603Z,14.70
2018-05-25T05:27:08.046Z,14.70
2018-05-25T05:29:35.444Z,14.80
2018-05-25T05:32:01.887Z,14.80
2018-05-25T05:34:28.313Z,14.70
2018-05-25T05:36:54.731Z,14.70
2018-05-25T05:39:21.168Z,14.80
2018-05-25T05:41:48.336Z,14.90
2018-05-25T05:44:14.760Z,14.90
2018-05-25T05:46:41.154Z,14.90
2018-05-25T05:49:07.577Z,15.00
2018-05-25T05:51:33.967Z,15.10
2018-05-25T05:54:00.396Z,15.20
2018-05-25T05:56:26.819Z,15.30
2018-05-25T05:58:53.949Z,15.50
2018-05-25T06:01:22.127Z,15.60
2018-05-25T06:03:49.330Z,15.60
2018-05-25T06:06:15.768Z,15.50
2018-05-25T06:08:42.202Z,15.60
2018-05-25T06:11:08.615Z,15.60
2018-05-25T06:16:27.726Z,15.80
2018-05-25T06:19:29.021Z,15.80
2018-05-25T06:21:55.527Z,15.60
2018-05-25T06:24:22.690Z,15.80
2018-05-25T06:26:49.820Z,16.00
2018-05-25T06:29:16.236Z,16.00
2018-05-25T06:31:42.633Z,16.50
2018-05-25T06:34:10.047Z,17.10
2018-05-25T06:40:19.572Z,17.80
2018-05-25T06:42:46.146Z,17.80
2018-05-25T06:45:12.765Z,17.30
2018-05-25T06:47:39.285Z,17.10
2018-05-25T06:50:06.575Z,16.90
2018-05-25T06:52:33.091Z,16.90
2018-05-25T06:55:00.595Z,16.70
2018-05-25T06:57:27.087Z,16.50
2018-05-25T06:59:53.596Z,16.60
2018-05-25T07:02:20.848Z,17.30
2018-05-25T07:04:48.089Z,17.80
2018-05-25T07:07:15.345Z,18.00
2018-05-25T07:09:42.629Z,17.90
2018-05-25T07:12:09.142Z,17.90
2018-05-25T07:14:36.452Z,17.40
2018-05-25T07:17:02.995Z,17.30
2018-05-25T07:19:29.569Z,17.20
2018-05-25T07:21:56.105Z,17.50
2018-05-25T07:24:23.358Z,18.10
2018-05-25T07:26:49.925Z,18.10
2018-05-25T07:29:17.173Z,18.70
2018-05-25T07:31:43.689Z,18.70
2018-05-25T07:34:10.310Z,19.10
2018-05-25T07:36:36.856Z,19.60
2018-05-25T07:39:05.029Z,19.60
2018-05-25T07:41:31.423Z,19.60
2018-05-25T07:43:57.815Z,19.30
2018-05-25T07:46:24.221Z,19.20
2018-05-25T07:48:51.392Z,19.80
2018-05-25T07:51:18.855Z,19.70
2018-05-25T07:53:45.300Z,19.90
2018-05-25T07:56:11.789Z,19.90
2018-05-25T07:58:38.212Z,19.90
2018-05-25T08:01:04.635Z,20.20
2018-05-25T08:03:32.627Z,20.90
2018-05-25T08:05:59.057Z,20.90
2018-05-25T08:08:26.281Z,20.90
2018-05-25T08:10:52.677Z,20.90
2018-05-25T08:13:19.137Z,20.90
2018-05-25T08:15:45.577Z,20.90
2018-05-25T08:18:12.018Z,21.20
2018-05-25T08:20:38.437Z,21.20
2018-05-25T08:23:04.897Z,21.20
2018-05-25T08:25:31.833Z,21.00
2018-05-25T08:28:06.202Z,21.30
2018-05-25T08:30:32.694Z,21.30
2018-05-25T08:32:59.397Z,21.40
2018-05-25T08:35:25.975Z,21.70
2018-05-25T08:37:53.230Z,21.70
2018-05-25T08:40:19.673Z,21.70
2018-05-25T08:42:46.799Z,21.80
2018-05-25T08:45:14.969Z,22.00
2018-05-25T08:47:41.368Z,21.90
2018-05-25T08:50:08.620Z,22.70
2018-05-25T08:52:35.035Z,22.70
2018-05-25T08:55:01.488Z,22.80
2018-05-25T08:57:27.945Z,23.10
2018-05-25T08:59:55.160Z,23.40
2018-05-25T09:02:21.587Z,23.80
2018-05-25T09:04:48.063Z,24.00
2018-05-25T09:07:14.472Z,24.20
2018-05-25T09:09:54.777Z,24.00
2018-05-25T09:12:21.338Z,24.10
2018-05-25T09:14:55.613Z,24.40
2018-05-25T09:17:22.046Z,24.60
2018-05-25T09:19:48.452Z,24.30
2018-05-25T09:22:14.865Z,23.10
2018-05-25T09:24:41.325Z,23.50
2018-05-25T09:27:07.767Z,24.10
2018-05-25T09:29:34.199Z,24.40
2018-05-25T09:32:00.649Z,24.90
2018-05-25T09:34:27.401Z,25.30
2018-05-25T09:36:53.923Z,24.80
2018-05-25T09:39:20.372Z,24.70
2018-05-25T09:41:47.573Z,24.80
2018-05-25T09:44:14.043Z,24.80
2018-05-25T09:46:40.640Z,25.50
2018-05-25T09:49:07.074Z,25.70
2018-05-25T09:51:33.712Z,26.00
2018-05-25T09:54:00.093Z,25.60
2018-05-25T09:56:27.423Z,24.70
2018-05-25T09:58:53.830Z,24.60
2018-05-25T10:01:22.308Z,25.00
2018-05-25T10:04:03.566Z,26.20
2018-05-25T10:06:30.213Z,26.20
2018-05-25T10:08:57.447Z,25.30
2018-05-25T10:11:24.924Z,25.30
2018-05-25T10:13:51.322Z,25.20
2018-05-25T10:16:17.732Z,25.90
2018-05-25T10:18:44.146Z,25.80
2018-05-25T10:21:11.423Z,25.30
2018-05-25T10:23:37.828Z,25.20
2018-05-25T10:26:05.140Z,26.20
2018-05-25T10:28:31.605Z,26.20
2018-05-25T10:30:58.799Z,24.90
2018-05-25T10:33:26.619Z,24.80
2018-05-25T11:20:51.347Z,27.70
2018-05-25T11:23:18.036Z,27.20
2018-05-25T11:25:45.446Z,25.80
2018-05-25T11:28:12.051Z,25.80
2018-05-25T11:30:38.621Z,26.00
2018-05-25T11:33:05.204Z,26.10
2018-05-25T11:35:31.712Z,25.90
2018-05-25T11:37:58.246Z,26.20
2018-05-25T11:40:24.783Z,26.80
2018-05-25T11:42:51.330Z,27.30
2018-05-25T11:45:17.854Z,27.80
2018-05-25T11:47:45.206Z,26.70
2018-05-25T11:50:11.726Z,26.70
2018-05-25T11:52:38.279Z,26.60
2018-05-25T11:55:04.811Z,27.40
2018-05-25T11:57:31.338Z,27.60
2018-05-25T11:59:57.880Z,27.50
2018-05-25T12:02:24.394Z,27.80
2018-05-25T12:04:50.877Z,27.70
2018-05-25T12:07:18.213Z,28.00
2018-05-25T12:09:45.496Z,27.20
2018-05-25T12:12:12.800Z,26.70
2018-05-25T12:14:39.336Z,26.60
2018-05-25T12:17:05.839Z,26.80
2018-05-25T12:19:32.375Z,27.00
2018-05-25T12:24:24.287Z,26.40
2018-05-25T12:26:51.466Z,25.70
2018-05-25T12:29:17.879Z,25.70
2018-05-25T12:35:14.714Z,25.20
2018-05-25T12:37:41.134Z,25.20
2018-05-25T12:40:07.565Z,25.00
2018-05-25T12:42:33.966Z,25.30
2018-05-25T12:45:11.415Z,25.80
2018-05-25T12:47:38.581Z,24.90
2018-05-25T12:50:05.856Z,24.70
2018-05-25T12:52:32.355Z,24.70
2018-05-25T12:54:58.893Z,25.00
2018-05-25T12:57:25.294Z,25.90
2018-05-25T12:59:53.773Z,26.50
2018-05-25T13:02:20.263Z,26.70
2018-05-25T13:04:46.673Z,27.00
2018-05-25T13:07:13.072Z,27.40
2018-05-25T13:09:39.701Z,27.70
2018-05-25T13:12:06.108Z,27.60
2018-05-25T13:14:32.953Z,27.30
2018-05-25T13:16:59.553Z,26.70
2018-05-25T13:19:26.897Z,28.00
2018-05-25T13:21:53.305Z,27.90
2018-05-25T13:24:19.932Z,28.50
2018-05-25T13:26:46.329Z,28.90
2018-05-25T13:29:12.791Z,29.00
2018-05-25T13:31:39.215Z,28.50
2018-05-25T13:34:05.761Z,27.50
2018-05-25T13:36:32.330Z,27.50
2018-05-25T13:38:58.759Z,27.30
2018-05-25T13:41:25.351Z,26.90
2018-05-25T13:43:51.819Z,26.20
2018-05-25T13:46:19.288Z,25.60
2018-05-25T13:48:46.488Z,26.40
2018-05-25T13:51:12.966Z,26.40
2018-05-25T13:58:32.155Z,25.60
2018-05-25T14:00:58.634Z,25.80
2018-05-25T14:03:25.893Z,26.70
2018-05-25T14:06:13.395Z,26.70
2018-05-25T14:08:39.982Z,25.90
2018-05-25T14:11:06.512Z,25.20
2018-05-25T14:13:33.788Z,26.40
2018-05-25T14:16:00.411Z,26.40
2018-05-25T14:18:26.965Z,26.70
2018-05-25T14:20:54.481Z,26.20
2018-05-25T14:23:21.760Z,26.50
2018-05-25T14:26:02.362Z,26.50
2018-05-25T14:28:28.956Z,27.00
2018-05-25T14:30:55.656Z,26.90
2018-05-25T14:33:22.196Z,27.40
2018-05-25T14:35:50.498Z,26.60
2018-05-25T14:38:17.151Z,26.50
2018-05-25T14:40:45.745Z,26.00
2018-05-25T14:43:13.066Z,25.70
2018-05-25T14:45:47.350Z,25.60
2018-05-25T14:48:14.039Z,25.50
2018-05-25T14:50:40.683Z,25.20
2018-05-25T14:53:07.258Z,25.20
2018-05-25T14:55:33.897Z,25.10
2018-05-25T14:58:00.416Z,25.00
2018-05-25T15:00:27.045Z,25.60
2018-05-25T15:02:53.631Z,25.60
2018-05-25T15:05:20.210Z,24.90
2018-05-25T15:07:46.756Z,25.20
2018-05-25T15:10:13.237Z,25.20
2018-05-25T15:12:39.701Z,25.30
2018-05-25T15:15:06.136Z,24.80
2018-05-25T15:17:33.331Z,24.60
2018-05-25T15:19:59.825Z,24.50
2018-05-25T15:22:26.404Z,24.50
2018-05-25T15:24:52.850Z,24.40
2018-05-25T15:27:19.323Z,24.20
2018-05-25T15:29:46.497Z,23.50
2018-05-25T15:32:12.950Z,23.40
2018-05-25T15:34:39.397Z,23.90
2018-05-25T15:37:37.045Z,24.10
2018-05-25T15:40:03.805Z,23.90
2018-05-25T15:42:30.408Z,23.90
2018-05-25T15:44:57.018Z,23.80
2018-05-25T15:47:23.559Z,23.90
2018-05-25T15:49:50.127Z,24.00
2018-05-25T15:52:16.672Z,23.60
2018-05-25T15:54:43.352Z,23.60
2018-05-25T15:57:09.888Z,23.70
2018-05-25T15:59:36.553Z,23.90
2018-05-25T16:02:04.623Z,24.00
2018-05-25T16:04:31.285Z,24.00
2018-05-25T16:06:57.848Z,24.20
2018-05-25T16:09:24.416Z,24.30
2018-05-25T16:11:52.036Z,24.20
2018-05-25T16:14:19.089Z,24.10
2018-05-25T16:16:45.906Z,23.90
2018-05-25T16:19:13.656Z,23.20
2018-05-25T16:21:40.310Z,23.20
2018-05-25T16:24:06.917Z,23.50
2018-05-25T16:26:33.452Z,23.40
2018-05-25T16:29:00.835Z,22.30
2018-05-25T16:31:27.411Z,22.30
2018-05-25T16:33:53.974Z,22.20
2018-05-25T16:36:21.269Z,22.40
2018-05-25T16:38:47.825Z,22.40
2018-05-25T16:41:25.784Z,22.20
2018-05-25T16:43:56.218Z,22.20
2018-05-25T16:46:22.615Z,22.10
2018-05-25T16:48:50.053Z,22.20
2018-05-25T16:51:16.528Z,22.20
2018-05-25T16:53:47.367Z,22.10
2018-05-25T16:56:13.828Z,22.00
2018-05-25T16:58:41.068Z,22.30
2018-05-25T17:01:08.355Z,22.10
2018-05-25T17:03:36.606Z,22.20
2018-05-25T17:06:03.284Z,21.90
2018-05-25T17:08:29.767Z,21.70
2018-05-25T17:10:56.207Z,21.70
2018-05-25T17:13:22.633Z,22.10
2018-05-25T17:15:49.817Z,22.40
2018-05-25T17:18:16.254Z,22.30
2018-05-25T17:20:42.690Z,22.10
2018-05-25T17:23:09.147Z,21.50
2018-05-25T17:25:35.581Z,21.10
2018-05-25T17:28:02.055Z,20.90
2018-05-25T17:30:29.249Z,20.60
2018-05-25T17:32:55.676Z,20.50
2018-05-25T17:35:22.104Z,20.50
2018-05-25T17:37:48.565Z,20.20
2018-05-25T17:40:14.981Z,20.00
2018-05-25T17:42:41.386Z,19.90
2018-05-25T17:45:08.574Z,19.90
2018-05-25T17:47:34.991Z,19.90
2018-05-25T17:50:01.452Z,19.90
2018-05-25T17:52:27.885Z,19.90
2018-05-25T17:54:54.354Z,19.80
2018-05-25T17:57:21.538Z,19.40
2018-05-25T17:59:47.963Z,19.40
2018-05-25T18:02:14.377Z,19.30
2018-05-25T18:04:42.530Z,19.20
2018-05-25T18:07:21.420Z,19.10
2018-05-25T18:10:23.177Z,19.00
2018-05-25T18:12:49.770Z,18.80
2018-05-25T18:15:16.333Z,18.80
2018-05-25T18:17:42.862Z,18.70
2018-05-25T18:20:09.370Z,18.60
2018-05-25T18:22:35.977Z,18.60
2018-05-25T18:25:03.297Z,18.30
2018-05-25T18:27:29.808Z,18.30
2018-05-25T18:29:56.388Z,18.20
2018-05-25T18:32:23.654Z,17.90
2018-05-25T18:34:50.191Z,17.90
2018-05-25T18:37:17.735Z,17.80
2018-05-25T18:39:45.042Z,17.60
2018-05-25T18:42:11.578Z,17.50
2018-05-25T18:44:38.101Z,17.50
2018-05-25T18:47:04.727Z,17.30
2018-05-25T18:49:31.254Z,17.20
2018-05-25T18:51:57.792Z,17.10
2018-05-25T18:54:33.414Z,17.00
2018-05-25T18:56:59.948Z,16.90
2018-05-25T18:59:27.201Z,16.60
2018-05-25T19:01:53.782Z,16.60
2018-05-25T19:04:20.328Z,16.50
2018-05-25T19:06:46.985Z,16.50
2018-05-25T19:09:13.530Z,16.40
2018-05-25T19:14:15.736Z,16.30
2018-05-25T19:16:42.982Z,16.20
2018-05-25T19:19:09.457Z,16.20
2018-05-25T19:21:35.876Z,16.20
2018-05-25T19:24:03.080Z,16.10
2018-05-25T19:26:29.537Z,16.00
2018-05-25T19:28:55.944Z,16.00
2018-05-25T19:31:22.343Z,16.00
2018-05-25T19:33:48.797Z,16.00
2018-05-25T19:36:15.194Z,16.00
2018-05-25T19:38:42.467Z,15.90
2018-05-25T19:41:08.865Z,15.90
2018-05-25T19:43:36.063Z,15.90
2018-05-25T19:46:02.554Z,15.90
2018-05-25T19:48:28.984Z,15.80
2018-05-25T19:50:56.167Z,15.80
2018-05-25T19:53:22.571Z,15.80
2018-05-25T19:55:49.000Z,15.80
2018-05-25T19:58:16.215Z,15.80
2018-05-25T20:00:43.623Z,15.70
2018-05-25T20:03:10.044Z,15.70
2018-05-25T20:05:36.451Z,15.70
2018-05-25T20:08:03.630Z,15.60
2018-05-25T20:10:31.059Z,15.60
2018-05-25T20:12:58.202Z,15.60
2018-05-25T20:15:54.903Z,15.60
2018-05-25T20:18:29.005Z,15.60
2018-05-25T20:20:56.252Z,15.50
2018-05-25T20:23:22.752Z,15.50
2018-05-25T20:25:49.218Z,15.50
2018-05-25T20:28:15.659Z,15.50
2018-05-25T20:30:42.832Z,15.30
2018-05-25T20:33:09.277Z,15.20
2018-05-25T20:35:35.745Z,15.20
2018-05-25T20:38:03.219Z,15.20
2018-05-25T20:40:30.392Z,15.20
2018-05-25T20:42:56.855Z,15.20
2018-05-25T20:45:23.278Z,15.30
2018-05-25T20:47:49.755Z,15.20
2018-05-25T20:50:16.192Z,15.20
2018-05-25T20:52:42.614Z,15.20
2018-05-25T20:55:09.821Z,15.10
2018-05-25T20:57:36.309Z,15.10
2018-05-25T21:00:03.547Z,14.90
2018-05-25T21:02:29.983Z,14.90
2018-05-25T21:04:56.408Z,14.90
2018-05-25T21:07:31.211Z,14.80
2018-05-25T21:09:58.388Z,14.80
2018-05-25T21:12:24.867Z,14.80
2018-05-25T21:14:51.282Z,14.80
2018-05-25T21:17:17.705Z,14.80
2018-05-25T21:19:44.159Z,14.80
2018-05-25T21:22:10.583Z,14.80
2018-05-25T21:24:37.055Z,14.90
2018-05-25T21:27:03.489Z,14.80
2018-05-25T21:29:29.933Z,14.80
2018-05-25T21:31:56.315Z,14.80
2018-05-25T21:34:22.849Z,14.80
2018-05-25T21:36:49.264Z,14.80
2018-05-25T21:39:16.488Z,14.80
2018-05-25T21:41:43.684Z,14.80
2018-05-25T21:44:10.131Z,14.80
2018-05-25T21:46:36.544Z,14.80
2018-05-25T21:49:03.008Z,14.80
2018-05-25T21:51:29.425Z,14.70
2018-05-25T21:53:55.869Z,14.70
2018-05-25T21:56:22.356Z,14.70
2018-05-25T21:58:49.539Z,14.70
2018-05-25T22:01:15.970Z,14.70
2018-05-25T22:03:42.418Z,14.70
2018-05-25T22:06:08.832Z,14.70
2018-05-25T22:08:35.244Z,14.70
2018-05-25T22:11:01.708Z,14.60
2018-05-25T22:13:28.181Z,14.60
2018-05-25T22:15:54.631Z,14.60
2018-05-25T22:18:21.034Z,14.70
2018-05-25T22:20:47.461Z,14.70
2018-05-25T22:23:22.564Z,14.70
2018-05-25T22:25:49.083Z,14.70
2018-05-25T22:28:15.507Z,14.70
2018-05-25T22:30:41.951Z,14.70
2018-05-25T22:33:08.328Z,14.70
2018-05-25T22:35:35.502Z,14.60
2018-05-25T22:38:01.946Z,14.60
2018-05-25T22:40:28.340Z,14.60
2018-05-25T22:43:07.664Z,14.60
2018-05-25T22:45:46.219Z,14.50
2018-05-25T22:48:24.658Z,14.50
2018-05-25T22:51:03.124Z,14.50
2018-05-25T22:53:36.068Z,14.60
2018-05-25T22:56:02.501Z,14.60
2018-05-25T22:58:29.656Z,14.60
2018-05-25T23:00:57.090Z,14.60
2018-05-25T23:03:23.550Z,14.60
2018-05-25T23:05:49.973Z,14.60
2018-05-25T23:08:16.380Z,14.60
2018-05-25T23:10:42.814Z,14.70
2018-05-25T23:13:09.206Z,14.60
2018-05-25T23:15:36.396Z,14.60
2018-05-25T23:18:02.853Z,14.60
2018-05-25T23:20:29.289Z,14.60
2018-05-25T23:22:55.684Z,14.60
2018-05-25T23:25:22.120Z,14.60
2018-05-25T23:27:48.753Z,14.60
2018-05-25T23:30:15.378Z,14.60
2018-05-25T23:32:41.841Z,14.60
2018-05-25T23:35:08.297Z,14.70
2018-05-25T23:37:36.444Z,14.70
2018-05-25T23:40:02.962Z,14.70
2018-05-25T23:42:29.440Z,14.70
2018-05-25T23:44:55.946Z,14.70
2018-05-25T23:47:22.437Z,14.60
2018-05-25T23:49:48.971Z,14.60
2018-05-25T23:52:15.432Z,14.60
2018-05-25T23:54:41.911Z,14.60
2018-05-25T23:57:09.111Z,14.60
2018-05-25T23:59:35.566Z,14.60
